Terminal Aerodrome Forecast
Issued by NWS Dodge City, KS

Home | Current Version | Previous Version | Text Only | Print | Product List | Glossary On
Versions: 1 2 3 4 5 6 7 8 9 10 11 12 13 14 15 16 17 18 19 20 21 22 23 24 25 26 27
000
FTUS43 KDDC 291700
TAFDDC
TAF
KDDC 291737Z 2918/3018 19014G18KT P6SM SCT035
     FM300100 17007KT P6SM SCT040 BKN080
      TEMPO 3002/3006 -TSRA BKN040CB
     FM300600 10010KT P6SM -RA OVC020
      TEMPO 3007/3011 4SM TSRA OVC015CB=

USA.gov is the U.S. government's official web portal to all federal, state and local government web resources and services.